Time;durP1;ratioP1;P1;durP2;ratioP2;P2;SDS_P1;SDS_P2;PMS_P1;PMS_P2;Temp;Humidity;BMP_temperature;BMP_pressure;BME280_temperature;BME280_humidity;BME280_pressure;Samples;Min_cycle;Max_cycle;Signal;HPM_P1;HPM_P2
2023/03/14 00:01:22;;;;;;;3.30;1.73;;;24.40;99.90;;;;;;5051194;28;20189;-73
2023/03/14 00:03:50;;;;;;;4.83;1.63;;;24.20;99.90;;;;;;5034417;28;20177;-70
2023/03/14 00:06:18;;;;;;;5.90;1.77;;;24.10;99.90;;;;;;5040040;28;20204;-72
2023/03/14 00:08:47;;;;;;;6.97;1.90;;;24.10;99.90;;;;;;5044771;28;20191;-71
2023/03/14 00:11:20;;;;;;;9.63;1.50;;;23.90;99.90;;;;;;5054151;28;20187;-73
2023/03/14 00:13:52;;;;;;;4.40;1.60;;;23.80;99.90;;;;;;5053089;28;20208;-70
2023/03/14 00:16:20;;;;;;;6.50;1.97;;;23.80;99.90;;;;;;5040139;28;20642;-72
2023/03/14 00:18:49;;;;;;;5.70;1.80;;;23.80;99.90;;;;;;5054117;28;20177;-71
2023/03/14 00:21:17;;;;;;;5.40;2.20;;;23.50;99.90;;;;;;5053757;28;20165;-71
2023/03/14 00:23:45;;;;;;;5.40;1.53;;;23.50;99.90;;;;;;5053979;28;20690;-71
2023/03/14 00:26:18;;;;;;;6.53;1.80;;;23.50;99.90;;;;;;5052854;28;20180;-71
2023/03/14 00:28:47;;;;;;;4.60;1.60;;;23.50;99.90;;;;;;5053412;28;20231;-72
2023/03/14 00:31:16;;;;;;;6.70;1.87;;;23.60;99.90;;;;;;5053789;28;20188;-72
2023/03/14 00:33:45;;;;;;;9.00;2.23;;;23.80;99.90;;;;;;5053524;28;20560;-73
2023/03/14 00:36:20;;;;;;;5.50;1.40;;;24.10;99.90;;;;;;5052669;28;20625;-73
2023/03/14 00:38:50;;;;;;;6.57;2.03;;;25.10;99.90;;;;;;5053883;28;20183;-74
2023/03/14 00:41:22;;;;;;;5.97;1.97;;;26.10;99.90;;;;;;5052281;28;20588;-71
2023/03/14 00:43:51;;;;;;;6.07;1.30;;;27.20;99.90;;;;;;5049411;28;20185;-72
2023/03/14 00:46:19;;;;;;;6.27;1.57;;;28.00;99.90;;;;;;5051299;28;20200;-72
2023/03/14 00:48:47;;;;;;;3.80;1.30;;;28.30;99.90;;;;;;5051294;28;20191;-76
2023/03/14 00:51:15;;;;;;;7.17;1.53;;;28.10;99.90;;;;;;5053747;28;20177;-79
2023/03/14 00:57:06;;;;;;;5.13;1.20;;;27.80;99.90;;;;;;5042360;28;20601;-75
2023/03/14 00:59:34;;;;;;;5.77;1.03;;;28.60;99.90;;;;;;5053386;28;20192;-72
2023/03/14 01:02:01;;;;;;;4.63;1.50;;;27.40;99.90;;;;;;5053488;28;20191;-73
2023/03/14 01:04:32;;;;;;;5.80;1.67;;;26.50;99.90;;;;;;5049959;28;20654;-72
2023/03/14 01:07:00;;;;;;;5.83;1.83;;;25.70;99.90;;;;;;5049136;28;20378;-72
2023/03/14 01:09:28;;;;;;;5.17;1.50;;;25.20;99.90;;;;;;5048352;28;20582;-72
2023/03/14 01:11:55;;;;;;;8.00;1.77;;;24.80;99.90;;;;;;5051564;28;20212;-72
2023/03/14 01:14:23;;;;;;;7.97;1.70;;;24.50;99.90;;;;;;5053121;28;20180;-72
2023/03/14 01:16:51;;;;;;;10.77;3.23;;;24.30;99.90;;;;;;5052865;28;20176;-77
2023/03/14 01:19:19;;;;;;;7.73;2.20;;;24.00;99.90;;;;;;5052550;28;20628;-74
2023/03/14 01:21:46;;;;;;;19.87;6.03;;;23.60;99.90;;;;;;5052840;28;20646;-73
2023/03/14 01:24:15;;;;;;;6.77;2.00;;;23.30;99.90;;;;;;5052807;28;20232;-74
2023/03/14 01:30:07;;;;;;;7.33;2.80;;;22.40;99.90;;;;;;5043469;28;20563;-73
2023/03/14 01:32:36;;;;;;;8.83;2.90;;;22.00;99.90;;;;;;5051530;28;20227;-73
2023/03/14 01:35:04;;;;;;;7.93;2.43;;;21.90;99.90;;;;;;5049984;28;20180;-72
2023/03/14 01:37:32;;;;;;;7.73;2.53;;;21.90;99.90;;;;;;5036892;28;20262;-73
2023/03/14 01:40:00;;;;;;;8.20;2.20;;;21.80;99.90;;;;;;5042897;28;20586;-73
2023/03/14 01:42:27;;;;;;;8.93;2.13;;;21.70;99.90;;;;;;5051570;28;20263;-73
2023/03/14 01:44:58;;;;;;;9.43;2.10;;;21.60;99.90;;;;;;5052612;28;20173;-73
2023/03/14 01:47:26;;;;;;;6.10;1.73;;;21.60;99.90;;;;;;5051559;28;20180;-73
2023/03/14 01:49:56;;;;;;;6.40;1.97;;;21.50;99.90;;;;;;5049457;28;20196;-74
2023/03/14 01:52:33;;;;;;;3.60;1.43;;;21.40;99.90;;;;;;5051555;28;20220;-75
2023/03/14 02:01:23;;;;;;;6.27;1.80;;;21.40;99.90;;;;;;5050439;28;20203;-73
2023/03/14 02:04:01;;;;;;;7.23;1.70;;;21.40;99.90;;;;;;5050940;28;20188;-74
2023/03/14 02:06:37;;;;;;;7.40;1.83;;;21.50;99.90;;;;;;5050402;28;20545;-74
2023/03/14 02:09:04;;;;;;;9.77;2.07;;;21.70;99.90;;;;;;5051584;28;20584;-74
2023/03/14 02:11:32;;;;;;;3.63;1.60;;;21.90;99.90;;;;;;5050989;28;20219;-74
2023/03/14 02:14:02;;;;;;;7.70;1.80;;;21.80;99.90;;;;;;5064377;28;20196;-74
2023/03/14 02:16:30;;;;;;;4.07;1.47;;;21.90;99.90;;;;;;5052070;28;20230;-74
2023/03/14 02:18:57;;;;;;;4.33;1.90;;;22.00;99.90;;;;;;5051568;28;20211;-74
2023/03/14 02:21:54;;;;;;;4.27;1.60;;;22.00;99.90;;;;;;5051868;28;20181;-74
2023/03/14 02:24:51;;;;;;;6.67;1.60;;;22.10;99.90;;;;;;5051933;28;20194;-73
2023/03/14 02:27:20;;;;;;;8.47;1.70;;;22.20;99.90;;;;;;5043791;28;20240;-73
2023/03/14 02:30:00;;;;;;;5.90;1.80;;;22.10;99.90;;;;;;5051995;28;20223;-74
2023/03/14 02:32:30;;;;;;;4.33;1.63;;;22.30;99.90;;;;;;5048740;28;20214;-73
2023/03/14 02:35:00;;;;;;;8.83;1.67;;;22.50;99.90;;;;;;5052087;28;20204;-73
2023/03/14 02:37:46;;;;;;;6.30;1.73;;;22.50;99.90;;;;;;5062752;28;20613;-74
2023/03/14 02:40:14;;;;;;;7.00;1.73;;;22.70;99.90;;;;;;5048623;28;20196;-73
2023/03/14 02:42:41;;;;;;;7.20;2.00;;;22.70;99.90;;;;;;5049955;28;20210;-73
2023/03/14 02:45:11;;;;;;;6.37;2.20;;;22.70;99.90;;;;;;5051719;28;20187;-73
2023/03/14 02:47:46;;;;;;;9.53;2.20;;;22.70;99.90;;;;;;5051033;28;20234;-73
2023/03/14 02:50:21;;;;;;;8.90;2.20;;;22.80;99.90;;;;;;5051776;28;20183;-73
2023/03/14 02:52:49;;;;;;;11.93;2.83;;;22.80;99.90;;;;;;5051586;28;20291;-73
2023/03/14 02:55:21;;;;;;;9.47;2.53;;;22.90;99.90;;;;;;5051219;28;20218;-73
2023/03/14 02:57:48;;;;;;;9.03;2.80;;;22.80;99.90;;;;;;5049961;28;20737;-73
2023/03/14 03:00:16;;;;;;;9.10;2.53;;;22.70;99.90;;;;;;5051487;28;20192;-74
2023/03/14 03:02:43;;;;;;;11.07;2.80;;;22.60;99.90;;;;;;5053521;28;20237;-74
2023/03/14 03:05:11;;;;;;;10.67;2.47;;;22.50;99.90;;;;;;5052986;28;20195;-74
2023/03/14 03:07:38;;;;;;;17.10;2.80;;;22.50;99.90;;;;;;5053239;28;20245;-75
2023/03/14 03:10:06;;;;;;;13.17;3.13;;;22.40;99.90;;;;;;5054015;28;20195;-74
2023/03/14 03:12:33;;;;;;;13.17;3.20;;;22.30;99.90;;;;;;5053999;28;20220;-74
2023/03/14 03:15:01;;;;;;;12.77;2.83;;;22.20;99.90;;;;;;5055223;28;20196;-74
2023/03/14 03:17:28;;;;;;;11.20;3.07;;;22.10;99.90;;;;;;5053900;28;20216;-74
2023/03/14 03:19:56;;;;;;;14.17;3.23;;;22.10;99.90;;;;;;5055079;28;20206;-75
2023/03/14 03:22:23;;;;;;;14.20;3.63;;;22.00;99.90;;;;;;5054721;28;20307;-74
2023/03/14 03:24:50;;;;;;;14.17;3.53;;;22.10;99.90;;;;;;5054773;28;20181;-73
2023/03/14 03:27:18;;;;;;;14.73;3.33;;;22.10;99.90;;;;;;5055122;28;20196;-75
2023/03/14 03:29:45;;;;;;;12.07;2.90;;;22.00;99.90;;;;;;5055157;28;20220;-75
2023/03/14 03:32:13;;;;;;;9.47;2.47;;;22.00;99.90;;;;;;5053206;28;20572;-75
2023/03/14 03:34:40;;;;;;;12.03;2.70;;;22.00;99.90;;;;;;5055089;28;20664;-74
2023/03/14 03:37:07;;;;;;;11.77;2.87;;;22.00;99.90;;;;;;5053652;28;20541;-73
2023/03/14 03:39:35;;;;;;;11.77;2.90;;;22.10;99.90;;;;;;5054359;28;20184;-73
2023/03/14 03:42:02;;;;;;;8.57;3.10;;;22.10;99.90;;;;;;5054829;28;20177;-75
2023/03/14 03:44:30;;;;;;;15.07;3.00;;;22.20;99.90;;;;;;5054704;28;20183;-74
2023/03/14 03:46:57;;;;;;;11.40;3.10;;;22.20;99.90;;;;;;5059018;28;20179;-74
2023/03/14 03:49:24;;;;;;;12.27;3.17;;;22.30;99.90;;;;;;5058354;28;20596;-73
2023/03/14 03:51:52;;;;;;;13.43;3.40;;;22.30;99.90;;;;;;5054111;28;20208;-73
2023/03/14 03:54:19;;;;;;;12.73;3.27;;;22.40;99.90;;;;;;5054406;28;20192;-73
2023/03/14 03:56:46;;;;;;;11.80;2.77;;;22.50;99.90;;;;;;5049549;28;20611;-73
2023/03/14 03:59:14;;;;;;;6.33;1.53;;;22.60;99.90;;;;;;5053364;28;20248;-74
2023/03/14 04:01:41;;;;;;;6.63;1.30;;;22.40;99.90;;;;;;5042198;28;20193;-73
2023/03/14 04:04:09;;;;;;;4.47;1.53;;;22.20;99.90;;;;;;5034585;28;20183;-73
2023/03/14 04:06:37;;;;;;;6.77;1.60;;;22.10;99.90;;;;;;5050996;28;20196;-73
2023/03/14 04:09:04;;;;;;;6.33;1.43;;;22.10;99.90;;;;;;5052342;28;20192;-73
2023/03/14 04:11:32;;;;;;;10.57;1.60;;;22.30;99.90;;;;;;5052826;28;20280;-73
2023/03/14 04:13:59;;;;;;;3.77;2.17;;;22.40;99.90;;;;;;5049653;28;20255;-72
2023/03/14 04:16:27;;;;;;;4.83;1.40;;;22.50;99.90;;;;;;5039812;28;20196;-73
2023/03/14 04:18:54;;;;;;;4.30;1.50;;;22.60;99.90;;;;;;5048006;28;20216;-72
2023/03/14 04:21:22;;;;;;;7.30;1.43;;;22.60;99.90;;;;;;5034011;28;20185;-74
2023/03/14 04:23:49;;;;;;;2.87;1.30;;;22.60;99.90;;;;;;5033394;28;20228;-73
2023/03/14 04:26:17;;;;;;;5.47;1.83;;;22.60;99.90;;;;;;5034059;28;20246;-73
2023/03/14 04:28:45;;;;;;;9.33;2.03;;;22.80;99.90;;;;;;5033698;28;20604;-73
2023/03/14 04:31:15;;;;;;;4.70;1.50;;;23.10;99.90;;;;;;5040829;28;20195;-74
2023/03/14 04:33:42;;;;;;;9.07;1.93;;;23.20;99.90;;;;;;5051374;28;20228;-77
2023/03/14 04:36:10;;;;;;;5.23;1.80;;;23.10;99.90;;;;;;5052845;28;20184;-75
2023/03/14 04:38:38;;;;;;;6.50;2.20;;;23.20;99.90;;;;;;5050743;28;20196;-73
2023/03/14 04:41:05;;;;;;;6.57;2.27;;;23.30;99.90;;;;;;5056051;28;20180;-75
2023/03/14 04:43:33;;;;;;;7.73;2.30;;;23.50;99.90;;;;;;5054353;28;20181;-73
2023/03/14 04:46:00;;;;;;;9.73;2.17;;;23.50;99.90;;;;;;5053391;28;20712;-69
2023/03/14 04:48:29;;;;;;;6.47;1.97;;;23.50;99.90;;;;;;5037520;28;20238;-72
2023/03/14 04:50:56;;;;;;;8.33;2.00;;;23.60;99.90;;;;;;5033773;28;20554;-75
2023/03/14 04:53:24;;;;;;;8.60;1.57;;;23.70;99.90;;;;;;5032699;28;20212;-75
2023/03/14 04:55:53;;;;;;;9.53;2.13;;;23.80;99.90;;;;;;5033373;28;20288;-77
2023/03/14 04:58:22;;;;;;;5.70;1.97;;;23.90;99.90;;;;;;5047428;28;20272;-71
2023/03/14 05:00:50;;;;;;;4.90;1.60;;;24.10;99.90;;;;;;5051990;28;20666;-76
2023/03/14 05:03:18;;;;;;;9.93;2.27;;;24.10;99.90;;;;;;5053162;28;20184;-70
2023/03/14 05:05:46;;;;;;;7.43;1.93;;;24.00;99.90;;;;;;5053216;28;20204;-71
2023/03/14 05:08:13;;;;;;;7.77;2.07;;;23.90;99.90;;;;;;5051665;28;20220;-77
2023/03/14 05:10:41;;;;;;;5.30;2.10;;;23.90;99.90;;;;;;5053338;28;20192;-76
2023/03/14 05:13:08;;;;;;;9.00;1.90;;;24.00;99.90;;;;;;5053140;28;20216;-77
2023/03/14 05:15:36;;;;;;;5.13;1.70;;;24.20;99.90;;;;;;5050034;28;20238;-79
2023/03/14 05:18:03;;;;;;;7.87;2.07;;;24.20;99.90;;;;;;5048341;28;20188;-78
2023/03/14 05:20:31;;;;;;;9.47;2.20;;;24.20;99.90;;;;;;5051539;28;20187;-78
2023/03/14 05:22:59;;;;;;;7.03;2.13;;;24.30;99.90;;;;;;5051367;28;20372;-74
2023/03/14 05:25:26;;;;;;;6.03;1.97;;;24.30;99.90;;;;;;5032930;28;20235;-78
2023/03/14 05:27:57;;;;;;;8.53;1.60;;;24.40;99.90;;;;;;5043714;28;20188;-78
2023/03/14 05:30:24;;;;;;;8.40;2.27;;;24.40;99.90;;;;;;5032526;28;20201;-78
2023/03/14 05:32:51;;;;;;;6.63;1.63;;;24.40;99.90;;;;;;5044323;28;20705;-76
2023/03/14 05:35:19;;;;;;;5.43;1.63;;;24.40;99.90;;;;;;5047266;28;20180;-76
2023/03/14 05:37:47;;;;;;;7.00;2.10;;;24.40;99.90;;;;;;5051448;28;20193;-76
2023/03/14 05:40:14;;;;;;;5.73;1.97;;;24.40;99.90;;;;;;5052046;28;20701;-77
2023/03/14 05:42:41;;;;;;;8.07;2.00;;;24.50;99.90;;;;;;5037622;28;20246;-76
2023/03/14 05:45:09;;;;;;;4.67;1.90;;;24.50;99.90;;;;;;5051816;28;20180;-77
2023/03/14 05:54:21;;;;;;;6.77;1.70;;;24.80;99.90;;;;;;5030731;28;20292;-75
2023/03/14 05:56:48;;;;;;;3.00;1.50;;;24.80;99.90;;;;;;5050550;28;20185;-77
2023/03/14 05:59:15;;;;;;;8.43;2.13;;;24.80;99.90;;;;;;5051862;28;20185;-77
2023/03/14 06:01:43;;;;;;;5.77;1.97;;;24.60;99.90;;;;;;5051232;28;20184;-75
2023/03/14 06:04:10;;;;;;;6.30;1.83;;;24.60;99.90;;;;;;5048973;28;20212;-70
2023/03/14 06:06:38;;;;;;;5.83;2.00;;;24.40;99.90;;;;;;5050867;28;20192;-75
2023/03/14 06:09:05;;;;;;;6.90;2.30;;;24.40;99.90;;;;;;5049620;28;20180;-76
2023/03/14 06:11:32;;;;;;;8.10;1.97;;;24.30;99.90;;;;;;5051646;28;20200;-75
2023/03/14 06:14:00;;;;;;;5.33;1.87;;;24.20;99.90;;;;;;5051328;28;20180;-76
2023/03/14 06:16:27;;;;;;;6.43;1.60;;;24.20;99.90;;;;;;5050308;28;20183;-76
2023/03/14 06:18:54;;;;;;;4.20;1.73;;;24.20;99.90;;;;;;5051488;28;20173;-73
2023/03/14 06:21:22;;;;;;;7.97;1.70;;;24.60;99.90;;;;;;5051539;28;20172;-70
2023/03/14 06:23:50;;;;;;;7.73;2.13;;;24.70;99.90;;;;;;5048918;28;20224;-76
2023/03/14 06:26:17;;;;;;;12.27;2.33;;;24.80;99.90;;;;;;5036916;28;20190;-75
2023/03/14 06:28:45;;;;;;;6.23;1.70;;;24.80;99.90;;;;;;5031472;28;20611;-77
2023/03/14 06:31:12;;;;;;;5.40;2.00;;;24.70;99.90;;;;;;5030813;28;20235;-75
2023/03/14 06:33:39;;;;;;;6.40;2.33;;;24.60;99.90;;;;;;5031125;28;20213;-76
2023/03/14 06:36:07;;;;;;;7.20;2.00;;;24.50;99.90;;;;;;5034217;28;20272;-78
2023/03/14 06:38:35;;;;;;;9.07;2.50;;;24.50;99.90;;;;;;5030434;28;20616;-71
2023/03/14 06:41:06;;;;;;;9.00;2.20;;;24.40;99.90;;;;;;5035642;28;20647;-75
2023/03/14 06:43:34;;;;;;;5.73;2.23;;;24.60;99.90;;;;;;5039189;28;20173;-76
2023/03/14 06:46:01;;;;;;;10.07;2.17;;;24.60;99.90;;;;;;5056355;28;20203;-71
2023/03/14 06:48:29;;;;;;;8.67;2.30;;;24.70;99.90;;;;;;5052625;28;20543;-74
2023/03/14 06:50:56;;;;;;;11.50;2.87;;;24.80;99.90;;;;;;5057621;28;20711;-74
2023/03/14 06:53:24;;;;;;;9.07;2.43;;;24.70;99.90;;;;;;5056713;28;20219;-77
2023/03/14 06:55:51;;;;;;;11.90;2.70;;;24.60;99.90;;;;;;5036329;28;20189;-78
2023/03/14 06:58:19;;;;;;;7.30;2.47;;;24.60;99.90;;;;;;5036463;28;20193;-77
2023/03/14 07:00:46;;;;;;;7.83;2.30;;;24.50;99.90;;;;;;5035789;28;20192;-74
2023/03/14 07:03:15;;;;;;;10.40;2.43;;;24.50;99.90;;;;;;5037430;28;20192;-71
2023/03/14 07:05:42;;;;;;;7.57;2.10;;;24.30;99.90;;;;;;5045448;28;20184;-70
2023/03/14 07:08:10;;;;;;;10.73;2.67;;;24.30;99.90;;;;;;5056930;28;20185;-74
2023/03/14 07:10:37;;;;;;;13.63;2.97;;;24.20;99.90;;;;;;5057858;28;20176;-79
2023/03/14 07:13:05;;;;;;;10.07;2.90;;;24.30;99.90;;;;;;5057323;28;20295;-76
2023/03/14 07:15:32;;;;;;;7.57;2.67;;;24.30;99.90;;;;;;5056090;28;20188;-74
2023/03/14 07:18:00;;;;;;;8.93;2.60;;;24.30;99.90;;;;;;5057722;28;20209;-75
2023/03/14 07:20:28;;;;;;;11.43;3.20;;;24.30;99.90;;;;;;5057676;28;20188;-71
2023/03/14 07:22:55;;;;;;;9.73;2.70;;;24.30;99.90;;;;;;5056988;28;20232;-72
2023/03/14 07:25:23;;;;;;;5.77;2.37;;;24.30;99.90;;;;;;5051212;28;20176;-71
2023/03/14 07:27:50;;;;;;;8.47;2.63;;;24.20;99.90;;;;;;5037653;28;20176;-77
2023/03/14 07:30:18;;;;;;;8.63;2.57;;;24.20;99.90;;;;;;5037143;28;20177;-76
2023/03/14 07:32:45;;;;;;;8.00;2.20;;;24.20;99.90;;;;;;5037549;28;20688;-77
2023/03/14 07:35:12;;;;;;;11.67;3.23;;;24.20;99.90;;;;;;5045061;28;20189;-77
2023/03/14 07:37:40;;;;;;;8.20;2.67;;;24.10;99.90;;;;;;5054224;28;20185;-77
2023/03/14 07:40:10;;;;;;;14.50;3.07;;;24.00;99.90;;;;;;5044649;28;20573;-71
2023/03/14 07:42:37;;;;;;;6.57;2.57;;;24.00;99.90;;;;;;5037102;28;20180;-78
2023/03/14 07:48:27;;;;;;;4.77;1.73;;;23.80;99.90;;;;;;5056756;28;20554;-72
2023/03/14 07:50:56;;;;;;;5.80;1.60;;;23.30;99.90;;;;;;5056427;28;20192;-75
2023/03/14 07:53:24;;;;;;;5.40;1.80;;;23.00;99.90;;;;;;5052166;28;20682;-76
2023/03/14 07:55:55;;;;;;;6.87;2.30;;;22.80;99.90;;;;;;5044456;28;20192;-72
2023/03/14 07:58:23;;;;;;;10.77;2.83;;;22.60;99.90;;;;;;5040299;28;20187;-72
2023/03/14 08:04:12;;;;;;;7.10;2.43;;;21.90;99.90;;;;;;5033943;28;20184;-73
2023/03/14 08:06:40;;;;;;;7.87;2.20;;;21.70;99.90;;;;;;5047183;28;20199;-83
2023/03/14 08:09:07;;;;;;;7.23;1.70;;;21.70;99.90;;;;;;5052877;28;20273;-75
2023/03/14 08:11:34;;;;;;;5.63;1.90;;;21.50;99.90;;;;;;5055147;28;20209;-78
2023/03/14 08:14:02;;;;;;;6.87;1.90;;;21.40;99.90;;;;;;5054073;28;20593;-72
2023/03/14 08:16:29;;;;;;;9.17;2.53;;;21.40;99.90;;;;;;5054522;28;20184;-70
2023/03/14 08:18:57;;;;;;;6.80;2.50;;;21.40;99.90;;;;;;5060521;28;20185;-74
2023/03/14 08:21:24;;;;;;;5.93;1.87;;;21.50;99.90;;;;;;5061121;28;20172;-79
2023/03/14 08:23:52;;;;;;;6.67;2.03;;;21.40;99.90;;;;;;5054003;28;20236;-75
2023/03/14 08:26:19;;;;;;;6.83;2.90;;;21.50;99.90;;;;;;5053500;28;20227;-72
2023/03/14 08:28:46;;;;;;;7.87;2.30;;;21.40;99.90;;;;;;5052209;28;20184;-75
2023/03/14 08:31:14;;;;;;;8.40;2.67;;;21.30;99.90;;;;;;5053292;28;20196;-71
2023/03/14 08:33:41;;;;;;;9.07;2.87;;;21.20;99.90;;;;;;5050292;28;20259;-73
2023/03/14 08:36:09;;;;;;;10.33;2.27;;;21.20;99.90;;;;;;5051112;28;20187;-72
2023/03/14 08:38:37;;;;;;;9.57;2.30;;;21.20;99.90;;;;;;5050521;28;20550;-78
2023/03/14 08:41:04;;;;;;;7.73;2.17;;;21.10;99.90;;;;;;5052621;28;20176;-77
2023/03/14 08:43:32;;;;;;;11.93;3.03;;;21.00;99.90;;;;;;5051883;28;20313;-71
2023/03/14 08:46:01;;;;;;;11.40;2.63;;;20.90;99.90;;;;;;5052075;28;20281;-72
2023/03/14 08:48:29;;;;;;;8.70;2.57;;;20.90;99.90;;;;;;5052838;28;20209;-71
2023/03/14 08:51:04;;;;;;;11.50;3.20;;;20.90;99.90;;;;;;5048948;28;20288;-77
2023/03/14 08:53:31;;;;;;;10.60;2.40;;;21.00;99.90;;;;;;5052586;28;20256;-77
2023/03/14 08:55:58;;;;;;;13.57;2.60;;;20.90;99.90;;;;;;5051146;28;20193;-70
2023/03/14 08:58:29;;;;;;;14.17;2.63;;;20.90;99.90;;;;;;5052507;28;20193;-75
2023/03/14 09:00:57;;;;;;;9.53;2.60;;;20.90;99.90;;;;;;5048355;28;20235;-73
2023/03/14 09:03:25;;;;;;;12.50;2.60;;;20.90;99.90;;;;;;5051073;28;20220;-77
2023/03/14 09:05:53;;;;;;;9.37;2.20;;;20.80;99.90;;;;;;5051923;28;20636;-75
2023/03/14 09:08:20;;;;;;;7.87;2.50;;;20.80;99.90;;;;;;5053062;28;20594;-76
2023/03/14 09:10:48;;;;;;;8.97;2.00;;;20.80;99.90;;;;;;5051590;28;20659;-72
2023/03/14 09:13:15;;;;;;;10.33;2.83;;;20.80;99.90;;;;;;5032173;28;20380;-77
2023/03/14 09:15:42;;;;;;;9.17;3.10;;;20.80;99.90;;;;;;5032404;28;20200;-79
2023/03/14 09:18:10;;;;;;;7.00;2.50;;;20.80;99.90;;;;;;5032674;28;20202;-78
2023/03/14 09:20:37;;;;;;;10.57;2.70;;;20.80;99.90;;;;;;5031501;28;20284;-74
2023/03/14 09:23:05;;;;;;;4.93;1.73;;;20.70;99.90;;;;;;5049425;28;20597;-78
2023/03/14 09:25:32;;;;;;;3.47;1.80;;;20.80;99.90;;;;;;5052609;28;20870;-74
2023/03/14 09:27:59;;;;;;;8.80;2.53;;;20.80;99.90;;;;;;5044285;28;20228;-79
2023/03/14 09:30:27;;;;;;;9.20;2.70;;;20.80;99.90;;;;;;5033627;28;20193;-77
2023/03/14 09:32:54;;;;;;;6.00;2.43;;;20.70;99.90;;;;;;5052175;28;20267;-79
2023/03/14 09:35:21;;;;;;;6.37;2.47;;;20.70;99.90;;;;;;5052059;28;20207;-79
2023/03/14 09:37:49;;;;;;;8.90;2.67;;;20.80;99.90;;;;;;5052094;28;20638;-78
2023/03/14 09:40:19;;;;;;;8.07;2.30;;;20.70;99.90;;;;;;5050863;28;20279;-78
2023/03/14 09:42:51;;;;;;;6.90;2.47;;;20.70;99.90;;;;;;5031955;28;20280;-79
2023/03/14 09:45:37;;;;;;;9.70;2.80;;;20.70;99.90;;;;;;5031828;28;20708;-79
2023/03/14 09:48:05;;;;;;;6.27;2.47;;;20.70;99.90;;;;;;5051329;28;20184;-79
2023/03/14 09:50:45;;;;;;;9.30;2.70;;;20.60;99.90;;;;;;5051012;28;20173;-79
2023/03/14 09:53:20;;;;;;;8.07;2.40;;;20.70;99.90;;;;;;5051744;28;20212;-78
2023/03/14 09:55:50;;;;;;;6.50;2.80;;;20.60;99.90;;;;;;5041719;28;20282;-77
2023/03/14 09:58:24;;;;;;;8.63;2.80;;;20.60;99.90;;;;;;5051482;28;20172;-78
2023/03/14 10:00:56;;;;;;;5.77;2.50;;;20.60;99.90;;;;;;5052215;28;20176;-76
2023/03/14 10:03:33;;;;;;;9.87;2.43;;;20.60;99.90;;;;;;5049792;28;20220;-79
2023/03/14 10:06:01;;;;;;;5.87;2.23;;;20.60;99.90;;;;;;5050827;28;20208;-77
2023/03/14 10:08:28;;;;;;;6.67;2.50;;;20.60;99.90;;;;;;5049644;28;20206;-78
2023/03/14 10:10:56;;;;;;;6.03;2.57;;;20.60;99.90;;;;;;5050480;28;20185;-77
2023/03/14 10:13:27;;;;;;;7.40;2.37;;;20.60;99.90;;;;;;5050704;28;20230;-76
2023/03/14 10:16:08;;;;;;;10.43;2.90;;;20.70;99.90;;;;;;5050931;28;20203;-78
2023/03/14 10:18:36;;;;;;;6.23;2.03;;;20.60;99.90;;;;;;5051254;28;20536;-79
2023/03/14 10:21:21;;;;;;;6.17;2.27;;;20.70;99.90;;;;;;5050686;28;20208;-79
2023/03/14 10:23:52;;;;;;;9.57;3.33;;;20.70;99.90;;;;;;5031742;28;20712;-77
2023/03/14 10:26:33;;;;;;;7.03;2.80;;;20.70;99.90;;;;;;5050731;28;20191;-79
2023/03/14 10:29:12;;;;;;;9.87;2.23;;;20.70;99.90;;;;;;5049089;28;20957;-79
2023/03/14 10:31:55;;;;;;;6.80;2.50;;;20.60;99.90;;;;;;5045291;28;20642;-76
2023/03/14 10:34:29;;;;;;;5.50;2.00;;;20.70;99.90;;;;;;5049927;28;20196;-79
2023/03/14 10:37:00;;;;;;;9.57;2.40;;;20.60;99.90;;;;;;5038579;28;20209;-80
2023/03/14 10:39:27;;;;;;;7.90;2.50;;;20.60;99.90;;;;;;5049147;28;20227;-79
2023/03/14 10:42:12;;;;;;;10.23;2.83;;;20.50;99.90;;;;;;5036159;28;20679;-80
2023/03/14 10:44:41;;;;;;;6.20;2.77;;;20.50;99.90;;;;;;5032166;28;20182;-75
2023/03/14 10:47:18;;;;;;;8.27;3.17;;;20.50;99.90;;;;;;5048481;28;20196;-77
2023/03/14 10:49:47;;;;;;;4.43;2.33;;;20.60;99.90;;;;;;5053448;28;20671;-78
2023/03/14 10:52:24;;;;;;;7.80;2.80;;;20.60;99.90;;;;;;5051490;28;20268;-78
2023/03/14 10:55:10;;;;;;;7.27;2.90;;;20.60;99.90;;;;;;5053253;28;20230;-80
2023/03/14 10:57:41;;;;;;;10.53;2.83;;;20.70;99.90;;;;;;5050332;28;20271;-80
2023/03/14 11:00:19;;;;;;;5.93;2.40;;;20.70;99.90;;;;;;5052074;28;20253;-80
2023/03/14 11:03:06;;;;;;;7.63;2.87;;;20.60;99.90;;;;;;5058334;28;20181;-77
2023/03/14 11:05:33;;;;;;;8.80;3.00;;;20.60;99.90;;;;;;5053575;28;20169;-79
2023/03/14 11:08:16;;;;;;;6.83;2.53;;;20.60;99.90;;;;;;5053794;28;20470;-78
2023/03/14 11:10:48;;;;;;;9.40;3.10;;;20.60;99.90;;;;;;5054100;28;20224;-78
2023/03/14 11:13:24;;;;;;;9.37;3.00;;;20.60;99.90;;;;;;5053424;28;20221;-78
2023/03/14 11:16:00;;;;;;;7.40;2.27;;;20.60;99.90;;;;;;5039479;28;20173;-80
2023/03/14 11:18:37;;;;;;;8.33;2.93;;;20.70;99.90;;;;;;5032102;28;20268;-81
2023/03/14 11:21:19;;;;;;;11.03;3.33;;;20.70;99.90;;;;;;5047227;28;20190;-78
2023/03/14 11:24:17;;;;;;;7.00;2.67;;;20.70;99.90;;;;;;5054737;28;20235;-80
2023/03/14 11:27:01;;;;;;;11.23;3.60;;;20.70;99.90;;;;;;5056332;28;20180;-79
2023/03/14 11:29:41;;;;;;;8.63;3.43;;;20.70;99.90;;;;;;5055109;28;20185;-74
2023/03/14 11:32:19;;;;;;;13.00;3.47;;;20.70;99.90;;;;;;5058338;28;20196;-79
2023/03/14 11:34:55;;;;;;;8.03;3.10;;;20.70;99.90;;;;;;5057424;28;20253;-77
2023/03/14 11:37:27;;;;;;;9.63;3.33;;;20.60;99.90;;;;;;5056440;28;20263;-81
2023/03/14 11:40:19;;;;;;;10.20;3.80;;;20.60;99.90;;;;;;5054280;28;20595;-80
2023/03/14 11:43:26;;;;;;;11.53;2.83;;;20.60;99.90;;;;;;5054433;28;20173;-77
2023/03/14 11:46:01;;;;;;;10.17;2.60;;;20.60;99.90;;;;;;5015692;28;20210;-80
2023/03/14 11:48:45;;;;;;;8.77;2.90;;;20.60;99.90;;;;;;5044267;28;20196;-80
2023/03/14 11:51:31;;;;;;;9.53;2.97;;;20.60;99.90;;;;;;5050125;28;20580;-79
2023/03/14 11:54:34;;;;;;;8.37;2.43;;;20.60;99.90;;;;;;5057593;28;20219;-76
2023/03/14 11:57:22;;;;;;;8.67;2.63;;;20.60;99.90;;;;;;5054292;28;20246;-79
2023/03/14 12:00:09;;;;;;;10.37;2.63;;;20.60;99.90;;;;;;5060852;28;20238;-78
2023/03/14 12:02:58;;;;;;;6.33;2.13;;;20.60;99.90;;;;;;5057000;28;20191;-79
2023/03/14 12:05:31;;;;;;;8.00;2.87;;;20.60;99.90;;;;;;5054880;28;20187;-79
2023/03/14 12:08:04;;;;;;;8.10;3.50;;;20.50;99.90;;;;;;5043866;28;20549;-82
2023/03/14 12:10:39;;;;;;;13.03;2.47;;;20.50;99.90;;;;;;5045458;28;20188;-80
2023/03/14 12:13:12;;;;;;;9.00;2.80;;;20.40;99.90;;;;;;5058490;28;20294;-79
2023/03/14 12:15:46;;;;;;;8.30;2.63;;;20.40;99.90;;;;;;5054692;28;20272;-81
2023/03/14 12:18:22;;;;;;;7.67;2.87;;;20.40;99.90;;;;;;5054041;28;20195;-77
2023/03/14 12:20:56;;;;;;;5.70;2.20;;;20.40;99.90;;;;;;5055169;28;20204;-77
2023/03/14 12:23:25;;;;;;;8.67;2.93;;;20.40;99.90;;;;;;5053596;28;20705;-80
2023/03/14 12:26:12;;;;;;;8.60;2.40;;;20.40;99.90;;;;;;5054348;28;20272;-79
2023/03/14 12:28:51;;;;;;;5.67;2.20;;;20.40;99.90;;;;;;5050854;28;20184;-79
2023/03/14 12:31:30;;;;;;;5.07;2.27;;;20.40;99.90;;;;;;5052909;28;20692;-81
2023/03/14 12:34:17;;;;;;;7.70;2.30;;;20.40;99.90;;;;;;5053506;28;20285;-79
2023/03/14 12:36:50;;;;;;;10.27;2.60;;;20.30;99.90;;;;;;5047070;28;20195;-79
2023/03/14 12:39:34;;;;;;;7.60;2.70;;;20.30;99.90;;;;;;5049033;28;20190;-74
2023/03/14 12:42:05;;;;;;;6.40;2.40;;;20.30;99.90;;;;;;5052922;28;20217;-76
2023/03/14 12:44:32;;;;;;;6.13;2.60;;;20.30;99.90;;;;;;5053223;28;20192;-76
2023/03/14 12:47:18;;;;;;;7.50;2.40;;;20.20;99.90;;;;;;5053262;28;20535;-73
2023/03/14 12:49:50;;;;;;;10.50;2.97;;;20.20;99.90;;;;;;5051716;28;20558;-71
2023/03/14 12:52:22;;;;;;;7.70;2.50;;;20.20;99.90;;;;;;5048673;28;20295;-74
2023/03/14 12:54:56;;;;;;;8.20;2.73;;;20.20;99.90;;;;;;5053900;28;20196;-69
2023/03/14 12:58:10;;;;;;;8.90;2.90;;;20.10;99.90;;;;;;5051480;28;20322;-72
2023/03/14 13:00:41;;;;;;;7.10;2.97;;;19.90;99.90;;;;;;5050115;28;20530;-74
2023/03/14 13:03:24;;;;;;;9.17;2.87;;;19.80;99.90;;;;;;5048156;28;20259;-71
2023/03/14 13:06:04;;;;;;;5.63;2.33;;;19.70;99.90;;;;;;5044542;28;20325;-70
2023/03/14 13:08:43;;;;;;;5.60;2.57;;;19.70;99.90;;;;;;5051471;28;20184;-70
2023/03/14 13:11:18;;;;;;;4.27;2.73;;;19.70;99.90;;;;;;5052677;28;20188;-73
2023/03/14 13:13:57;;;;;;;4.83;2.30;;;19.70;99.90;;;;;;5050246;28;20224;-72
2023/03/14 13:16:25;;;;;;;7.43;2.60;;;19.70;99.90;;;;;;5053856;28;20204;-72
2023/03/14 13:19:14;;;;;;;6.50;2.20;;;19.70;99.90;;;;;;5053905;28;20546;-70
2023/03/14 13:21:42;;;;;;;5.33;2.47;;;19.70;99.90;;;;;;5040711;28;20222;-69
2023/03/14 13:24:26;;;;;;;7.23;2.93;;;19.70;99.90;;;;;;5047029;28;20232;-71
2023/03/14 13:26:57;;;;;;;8.83;3.50;;;19.70;99.90;;;;;;5052965;28;20202;-69
2023/03/14 13:29:33;;;;;;;9.20;3.17;;;19.70;99.90;;;;;;5040627;28;20283;-71
2023/03/14 13:32:13;;;;;;;9.27;2.93;;;19.70;99.90;;;;;;5053022;28;20180;-69